createdAt,value
2023-01-23T00:00:30.783Z,8.40
2023-01-23T00:03:33.326Z,9.32
2023-01-23T00:06:34.865Z,7.90
2023-01-23T00:09:36.384Z,7.50
2023-01-23T00:12:43.121Z,6.93
2023-01-23T00:15:44.658Z,7.93
2023-01-23T00:18:46.408Z,7.70
2023-01-23T00:21:47.890Z,8.38
2023-01-23T00:24:49.405Z,8.90
2023-01-23T00:27:50.887Z,8.13
2023-01-23T00:30:52.491Z,8.70
2023-01-23T00:33:55.479Z,8.60
2023-01-23T00:36:56.978Z,8.55
2023-01-23T00:39:58.460Z,8.52
2023-01-23T00:42:59.965Z,8.57
2023-01-23T00:46:01.629Z,8.73
2023-01-23T00:49:03.317Z,7.85
2023-01-23T00:52:04.861Z,8.45
2023-01-23T00:55:07.047Z,8.02
2023-01-23T00:58:08.837Z,5.68
2023-01-23T01:01:10.299Z,6.07
2023-01-23T01:04:11.789Z,7.68
2023-01-23T01:07:13.428Z,8.40
2023-01-23T01:10:15.022Z,8.27
2023-01-23T01:13:21.284Z,9.50
2023-01-23T01:16:24.411Z,8.10
2023-01-23T01:19:28.194Z,8.15
2023-01-23T01:22:29.710Z,7.90
2023-01-23T01:25:31.199Z,9.50
2023-01-23T01:28:33.734Z,9.40
2023-01-23T01:31:35.281Z,9.32
2023-01-23T01:34:36.829Z,9.25
2023-01-23T01:37:39.362Z,8.50
2023-01-23T01:40:40.996Z,9.43
2023-01-23T01:43:42.690Z,9.10
2023-01-23T01:46:45.874Z,9.77
2023-01-23T01:49:47.438Z,8.27
2023-01-23T01:52:48.957Z,8.40
2023-01-23T01:55:50.405Z,8.98
2023-01-23T01:58:52.025Z,9.55
2023-01-23T02:01:57.363Z,8.40
2023-01-23T02:05:01.476Z,7.95
2023-01-23T02:08:23.164Z,8.55
2023-01-23T02:11:24.953Z,10.05
2023-01-23T02:14:26.498Z,7.67
2023-01-23T02:17:27.977Z,11.43
2023-01-23T02:20:29.500Z,10.50
2023-01-23T02:24:06.911Z,11.52
2023-01-23T02:27:08.530Z,10.57
2023-01-23T02:30:10.972Z,11.13
2023-01-23T02:33:32.401Z,10.10
2023-01-23T02:36:34.709Z,10.02
2023-01-23T02:39:37.091Z,10.82
2023-01-23T02:42:40.724Z,11.00
2023-01-23T02:45:42.355Z,11.10
2023-01-23T02:48:44.836Z,11.05
2023-01-23T02:51:46.322Z,11.10
2023-01-23T02:54:47.819Z,10.38
2023-01-23T02:57:49.377Z,10.00
2023-01-23T03:00:50.853Z,10.65
2023-01-23T03:03:53.505Z,11.80
2023-01-23T03:06:55.031Z,11.05
2023-01-23T03:09:56.579Z,9.75
2023-01-23T03:13:07.213Z,9.85
2023-01-23T03:16:09.565Z,9.55
2023-01-23T03:19:11.106Z,10.38
2023-01-23T03:22:12.646Z,11.00
2023-01-23T03:25:14.141Z,9.02
2023-01-23T03:28:34.363Z,9.73
2023-01-23T03:31:36.006Z,8.93
2023-01-23T03:34:38.025Z,9.38
2023-01-23T03:37:39.523Z,11.40
2023-01-23T03:40:59.710Z,10.85
2023-01-23T03:44:01.181Z,10.82
2023-01-23T03:47:02.656Z,10.07
2023-01-23T03:50:04.375Z,11.88
2023-01-23T03:53:05.885Z,10.73
2023-01-23T03:56:07.596Z,9.98
2023-01-23T03:59:09.209Z,8.82
2023-01-23T04:02:10.798Z,9.27
2023-01-23T04:05:12.259Z,9.35
2023-01-23T04:08:13.767Z,8.35
2023-01-23T04:11:15.246Z,7.20
2023-01-23T04:14:16.740Z,7.10
2023-01-23T04:17:18.254Z,7.70
2023-01-23T04:20:20.099Z,7.90
2023-01-23T04:23:21.883Z,7.90
2023-01-23T04:26:23.373Z,8.15
2023-01-23T04:29:24.919Z,8.50
2023-01-23T04:32:26.419Z,5.85
2023-01-23T04:35:27.983Z,6.47
2023-01-23T04:38:30.071Z,3.65
2023-01-23T04:41:31.916Z,3.72
2023-01-23T04:44:33.401Z,2.97
2023-01-23T04:47:34.885Z,3.05
2023-01-23T04:50:36.349Z,2.92
2023-01-23T04:53:38.243Z,2.88
2023-01-23T04:56:39.898Z,2.90
2023-01-23T04:59:41.341Z,3.30
2023-01-23T05:02:42.879Z,2.83
2023-01-23T05:05:44.411Z,3.10
2023-01-23T05:08:45.977Z,3.05
2023-01-23T05:11:47.481Z,3.28
2023-01-23T05:14:48.960Z,3.13
2023-01-23T05:17:50.427Z,2.80
2023-01-23T05:20:51.898Z,2.60
2023-01-23T05:23:53.366Z,3.25
2023-01-23T05:26:54.851Z,3.03
2023-01-23T05:29:56.352Z,3.15
2023-01-23T05:32:57.826Z,2.88
2023-01-23T05:36:00.283Z,3.47
2023-01-23T05:39:01.776Z,3.42
2023-01-23T05:42:03.298Z,3.30
2023-01-23T05:45:05.141Z,3.30
2023-01-23T05:48:06.727Z,2.63
2023-01-23T05:51:08.296Z,2.92
2023-01-23T05:54:10.118Z,2.90
2023-01-23T05:57:11.690Z,2.90
2023-01-23T06:00:13.691Z,3.28
2023-01-23T06:03:15.207Z,3.60
2023-01-23T06:06:16.731Z,3.80
2023-01-23T06:09:18.244Z,3.20
2023-01-23T06:12:19.744Z,3.17
2023-01-23T06:15:21.329Z,2.60
2023-01-23T06:18:23.062Z,3.00
2023-01-23T06:21:24.515Z,3.05
2023-01-23T06:24:25.991Z,3.58
2023-01-23T06:27:27.492Z,3.13
2023-01-23T06:30:29.146Z,2.78
2023-01-23T06:33:30.990Z,3.15
2023-01-23T06:36:32.669Z,4.53
2023-01-23T06:39:36.933Z,2.83
2023-01-23T06:42:38.535Z,3.85
2023-01-23T06:45:44.257Z,3.83
2023-01-23T06:48:45.773Z,3.42
2023-01-23T06:51:47.253Z,3.25
2023-01-23T06:54:48.716Z,3.65
2023-01-23T06:57:50.260Z,3.55
2023-01-23T07:00:51.745Z,3.63
2023-01-23T07:03:53.225Z,3.70
2023-01-23T07:06:54.698Z,4.00
2023-01-23T07:09:56.225Z,3.80
2023-01-23T07:12:57.798Z,3.38
2023-01-23T07:15:59.390Z,4.03
2023-01-23T07:19:01.586Z,4.55
2023-01-23T07:22:03.498Z,3.80
2023-01-23T07:25:05.433Z,3.85
2023-01-23T07:28:07.075Z,4.37
2023-01-23T07:31:08.734Z,8.85
2023-01-23T07:34:10.374Z,25.25
2023-01-23T07:37:11.875Z,6.03
2023-01-23T07:40:14.100Z,3.38
2023-01-23T07:43:15.598Z,3.75
2023-01-23T07:46:17.157Z,4.35
2023-01-23T07:49:18.659Z,3.60
2023-01-23T07:52:20.115Z,3.50
2023-01-23T07:55:21.636Z,3.85
2023-01-23T07:58:23.167Z,3.40
2023-01-23T08:01:24.670Z,3.88
2023-01-23T08:04:26.164Z,6.30
2023-01-23T08:07:28.297Z,3.45
2023-01-23T08:10:29.771Z,2.92
2023-01-23T08:13:31.240Z,3.30
2023-01-23T08:16:32.745Z,5.10
2023-01-23T08:19:34.231Z,3.95
2023-01-23T08:22:37.290Z,3.35
2023-01-23T08:25:38.926Z,4.10
2023-01-23T08:28:41.573Z,5.53
2023-01-23T08:31:43.168Z,4.43
2023-01-23T08:37:47.119Z,3.10
2023-01-23T08:40:49.305Z,5.47
2023-01-23T08:43:50.894Z,4.38
2023-01-23T08:46:52.391Z,23.23
2023-01-23T08:49:53.861Z,6.13
2023-01-23T08:52:55.581Z,4.15
2023-01-23T08:56:23.477Z,4.50
2023-01-23T08:59:25.072Z,4.30
2023-01-23T09:02:26.582Z,5.22
2023-01-23T09:05:29.060Z,5.93
2023-01-23T09:08:30.667Z,3.70
2023-01-23T09:11:32.463Z,4.82
2023-01-23T09:14:33.946Z,3.00
2023-01-23T09:17:35.524Z,3.67
2023-01-23T09:20:38.107Z,3.15
2023-01-23T09:23:39.603Z,3.80
2023-01-23T09:26:41.182Z,4.07
2023-01-23T09:29:42.654Z,4.40
2023-01-23T09:32:44.192Z,3.42
2023-01-23T09:35:46.254Z,4.00
2023-01-23T09:38:49.005Z,4.70
2023-01-23T09:41:50.500Z,3.85
2023-01-23T09:45:01.764Z,5.00
2023-01-23T09:48:07.351Z,3.88
2023-01-23T09:51:17.720Z,3.20
2023-01-23T09:54:44.828Z,3.58
2023-01-23T09:57:57.726Z,4.20
2023-01-23T10:04:00.860Z,4.10
2023-01-23T10:07:28.195Z,4.38
2023-01-23T10:10:57.910Z,4.50
2023-01-23T10:14:05.778Z,3.75
2023-01-23T10:17:26.538Z,3.92
2023-01-23T10:20:34.176Z,4.07
2023-01-23T10:23:47.876Z,4.30
2023-01-23T10:26:49.784Z,4.22
2023-01-23T10:30:07.677Z,3.88
2023-01-23T10:33:13.195Z,4.65
2023-01-23T10:36:23.681Z,4.57
2023-01-23T10:39:27.665Z,4.57
2023-01-23T10:42:29.199Z,4.65
2023-01-23T10:45:30.798Z,4.28
2023-01-23T10:48:34.688Z,4.97
2023-01-23T10:51:39.069Z,5.78
2023-01-23T10:54:46.990Z,4.57
2023-01-23T10:57:52.894Z,5.10
2023-01-23T11:00:54.356Z,5.38
2023-01-23T11:03:56.015Z,4.88
2023-01-23T11:07:17.666Z,5.50
2023-01-23T11:10:21.487Z,5.40
2023-01-23T11:13:30.021Z,4.85
2023-01-23T11:16:31.591Z,4.78
2023-01-23T11:19:33.332Z,5.35
2023-01-23T11:22:41.137Z,3.90
2023-01-23T11:25:44.013Z,4.55
2023-01-23T11:28:49.140Z,4.82
2023-01-23T11:32:11.532Z,4.35
2023-01-23T11:35:15.670Z,4.10
2023-01-23T11:38:30.273Z,4.85
2023-01-23T11:41:33.801Z,4.47
2023-01-23T11:48:11.587Z,4.43
2023-01-23T11:51:25.188Z,3.53
2023-01-23T11:55:07.941Z,4.45
2023-01-23T11:58:22.901Z,4.72
2023-01-23T12:01:30.406Z,4.43
2023-01-23T12:04:39.652Z,5.28
2023-01-23T12:08:26.089Z,4.25
2023-01-23T12:11:32.239Z,4.15
2023-01-23T12:14:48.013Z,4.55
2023-01-23T12:18:02.912Z,3.95
2023-01-23T12:21:17.531Z,4.55
2023-01-23T12:24:56.560Z,5.15
2023-01-23T12:28:02.808Z,4.68
2023-01-23T12:31:07.179Z,5.28
2023-01-23T12:34:16.340Z,5.70
2023-01-23T12:37:43.271Z,4.65
2023-01-23T12:40:55.252Z,7.55
2023-01-23T12:44:05.115Z,5.80
2023-01-23T12:47:38.885Z,4.95
2023-01-23T12:50:44.700Z,5.05
2023-01-23T12:53:46.341Z,4.85
2023-01-23T12:56:48.073Z,5.85
2023-01-23T13:00:01.860Z,3.47
2023-01-23T13:03:22.710Z,5.13
2023-01-23T13:06:51.079Z,4.40
2023-01-23T13:10:14.414Z,5.40
2023-01-23T13:13:17.124Z,4.60
2023-01-23T13:19:44.264Z,4.38
2023-01-23T13:22:45.745Z,4.10
2023-01-23T13:25:47.238Z,4.72
2023-01-23T13:29:01.399Z,4.57
2023-01-23T13:32:23.039Z,4.68
2023-01-23T13:35:39.728Z,4.30
2023-01-23T13:38:42.186Z,4.72
2023-01-23T13:41:50.616Z,5.13
2023-01-23T13:45:24.527Z,4.63
2023-01-23T14:23:17.508Z,3.50
2023-01-23T14:26:21.030Z,7.18
2023-01-23T14:29:24.078Z,6.43
2023-01-23T14:32:26.203Z,5.03
2023-01-23T14:35:29.391Z,4.63
2023-01-23T14:38:33.941Z,4.47
2023-01-23T14:41:42.923Z,5.00
2023-01-23T14:44:46.718Z,4.60
2023-01-23T14:47:53.509Z,4.95
2023-01-23T14:51:06.548Z,8.25
2023-01-23T14:54:20.360Z,5.57
2023-01-23T14:57:24.347Z,4.70
2023-01-23T15:00:26.129Z,3.78
2023-01-23T15:03:34.815Z,4.50
2023-01-23T15:06:36.336Z,4.15
2023-01-23T15:09:41.674Z,6.13
2023-01-23T15:12:51.521Z,6.35
2023-01-23T15:15:56.460Z,4.32
2023-01-23T15:19:07.933Z,8.32
2023-01-23T15:22:19.551Z,5.28
2023-01-23T15:25:32.758Z,4.40
2023-01-23T15:29:01.159Z,4.50
2023-01-23T15:32:02.772Z,4.47
2023-01-23T15:35:14.885Z,4.25
2023-01-23T15:38:16.971Z,3.25
2023-01-23T15:41:30.100Z,3.25
2023-01-23T15:44:36.109Z,4.10
2023-01-23T15:47:37.639Z,3.60
2023-01-23T15:50:39.200Z,4.40
2023-01-23T15:53:40.734Z,5.05
2023-01-23T15:56:42.234Z,4.90
2023-01-23T15:59:43.837Z,5.32
2023-01-23T16:02:55.737Z,5.35
2023-01-23T16:05:58.049Z,4.45
2023-01-23T16:09:05.321Z,3.90
2023-01-23T16:12:10.557Z,5.13
2023-01-23T16:15:17.737Z,4.32
2023-01-23T16:18:19.258Z,4.93
2023-01-23T16:21:21.061Z,4.57
2023-01-23T16:24:22.864Z,3.63
2023-01-23T16:27:27.486Z,4.30
2023-01-23T16:30:29.303Z,4.72
2023-01-23T16:33:30.811Z,4.10
2023-01-23T16:36:32.273Z,9.40
2023-01-23T16:39:33.791Z,7.40
2023-01-23T16:42:35.304Z,6.65
2023-01-23T16:45:36.872Z,6.55
2023-01-23T16:48:38.371Z,5.25
2023-01-23T16:51:40.689Z,4.60
2023-01-23T16:54:42.674Z,5.15
2023-01-23T16:57:44.217Z,4.10
2023-01-23T17:00:46.065Z,5.95
2023-01-23T17:03:58.523Z,6.88
2023-01-23T17:07:00.094Z,5.65
2023-01-23T17:10:01.559Z,6.05
2023-01-23T17:13:03.090Z,5.22
2023-01-23T17:16:07.376Z,4.35
2023-01-23T17:19:31.823Z,5.07
2023-01-23T17:22:37.214Z,6.13
2023-01-23T17:25:50.915Z,5.20
2023-01-23T17:28:59.831Z,6.03
2023-01-23T17:32:01.525Z,5.10
2023-01-23T17:35:04.537Z,5.70
2023-01-23T17:38:06.931Z,5.10
2023-01-23T17:41:15.420Z,5.10
2023-01-23T17:44:16.947Z,5.63
2023-01-23T17:47:18.696Z,4.60
2023-01-23T17:50:21.459Z,6.10
2023-01-23T17:53:24.055Z,5.65
2023-01-23T17:56:25.544Z,5.82
2023-01-23T17:59:27.088Z,6.22
2023-01-23T18:02:29.074Z,6.72
2023-01-23T18:05:30.614Z,5.85
2023-01-23T18:08:32.191Z,5.18
2023-01-23T18:11:33.725Z,4.95
2023-01-23T18:15:15.364Z,5.88
2023-01-23T18:18:27.787Z,5.18
2023-01-23T18:21:29.527Z,5.32
2023-01-23T18:24:32.017Z,6.18
2023-01-23T18:27:33.566Z,6.35
2023-01-23T18:31:00.472Z,5.63
2023-01-23T18:34:19.739Z,5.32
2023-01-23T18:37:41.237Z,6.15
2023-01-23T18:41:13.131Z,6.20
2023-01-23T18:44:23.943Z,6.50
2023-01-23T18:47:25.888Z,5.50
2023-01-23T18:50:27.736Z,5.73
2023-01-23T18:53:45.886Z,5.90
2023-01-23T18:57:01.002Z,4.85
2023-01-23T19:00:24.846Z,5.88
2023-01-23T19:03:38.257Z,5.32
2023-01-23T19:06:41.249Z,6.03
2023-01-23T19:09:46.516Z,6.53
2023-01-23T19:13:00.319Z,6.78
2023-01-23T19:16:27.938Z,5.75
2023-01-23T19:19:32.826Z,5.97
2023-01-23T19:23:06.765Z,6.20
2023-01-23T19:26:14.323Z,5.07
2023-01-23T19:29:21.960Z,6.45
2023-01-23T19:32:24.374Z,7.60
2023-01-23T19:35:25.984Z,11.40
2023-01-23T19:38:28.063Z,7.03
2023-01-23T19:41:49.862Z,6.75
2023-01-23T19:44:51.424Z,6.30
2023-01-23T19:47:54.014Z,6.32
2023-01-23T19:50:55.576Z,5.53
2023-01-23T19:53:57.143Z,5.80
2023-01-23T19:56:58.678Z,6.05
2023-01-23T20:00:00.239Z,5.93
2023-01-23T20:03:02.279Z,8.43
2023-01-23T20:06:03.905Z,7.55
2023-01-23T20:09:05.508Z,7.55
2023-01-23T20:12:07.068Z,6.00
2023-01-23T20:15:09.498Z,7.18
2023-01-23T20:18:11.612Z,7.70
2023-01-23T20:21:13.222Z,4.85
2023-01-23T20:24:15.022Z,5.80
2023-01-23T20:27:16.600Z,6.03
2023-01-23T20:30:19.327Z,6.53
2023-01-23T20:33:22.310Z,7.10
2023-01-23T20:36:23.879Z,4.97
2023-01-23T20:39:25.424Z,8.82
2023-01-23T20:42:27.036Z,6.55
2023-01-23T20:45:28.615Z,5.95
2023-01-23T20:48:33.484Z,5.68
2023-01-23T20:51:35.067Z,6.30
2023-01-23T20:54:36.628Z,5.50
2023-01-23T20:57:56.906Z,9.60
2023-01-23T21:00:58.489Z,5.70
2023-01-23T21:04:00.067Z,7.05
2023-01-23T21:07:01.784Z,6.57
2023-01-23T21:10:03.505Z,5.83
2023-01-23T21:13:05.065Z,5.77
2023-01-23T21:16:08.383Z,5.93
2023-01-23T21:19:09.989Z,5.53
2023-01-23T21:22:11.534Z,5.65
2023-01-23T21:25:13.158Z,6.40
2023-01-23T21:28:14.742Z,5.97
2023-01-23T21:31:24.346Z,11.32
2023-01-23T21:34:26.008Z,8.90
2023-01-23T21:37:27.559Z,6.50
2023-01-23T21:40:29.090Z,7.60
2023-01-23T21:43:30.551Z,6.38
2023-01-23T21:46:32.076Z,6.43
2023-01-23T21:49:33.685Z,6.07
2023-01-23T21:52:35.163Z,7.50
2023-01-23T21:55:36.735Z,7.05
2023-01-23T21:58:38.240Z,6.32
2023-01-23T22:01:42.604Z,5.95
2023-01-23T22:04:44.294Z,5.68
2023-01-23T22:07:48.363Z,6.72
2023-01-23T22:10:49.881Z,6.18
2023-01-23T22:13:51.380Z,6.05
2023-01-23T22:16:52.914Z,6.28
2023-01-23T22:19:54.424Z,6.68
2023-01-23T22:22:55.908Z,6.75
2023-01-23T22:25:59.673Z,8.65
2023-01-23T22:29:01.144Z,7.57
2023-01-23T22:32:02.833Z,5.68
2023-01-23T22:35:04.727Z,5.30
2023-01-23T22:38:06.905Z,7.17
2023-01-23T22:41:11.958Z,5.40
2023-01-23T22:44:13.506Z,5.72
2023-01-23T22:47:15.066Z,5.55
2023-01-23T22:50:17.103Z,6.40
2023-01-23T22:53:18.623Z,5.72
2023-01-23T22:56:20.330Z,5.93
2023-01-23T22:59:21.815Z,5.07
2023-01-23T23:02:23.294Z,5.75
2023-01-23T23:05:24.790Z,7.20
2023-01-23T23:08:26.561Z,6.65
2023-01-23T23:11:28.254Z,4.73
2023-01-23T23:14:29.857Z,5.83
2023-01-23T23:17:31.406Z,6.18
2023-01-23T23:20:33.070Z,5.18
2023-01-23T23:23:34.893Z,5.85
2023-01-23T23:26:36.381Z,5.27
2023-01-23T23:29:37.884Z,5.72
2023-01-23T23:32:39.382Z,6.22
2023-01-23T23:35:40.947Z,6.03
2023-01-23T23:38:42.470Z,7.03
2023-01-23T23:41:44.004Z,6.13
2023-01-23T23:44:45.514Z,5.93
2023-01-23T23:47:47.020Z,6.43
2023-01-23T23:50:48.485Z,6.25
2023-01-23T23:53:49.964Z,6.35
2023-01-23T23:56:51.532Z,5.72
2023-01-23T23:59:53.045Z,5.25
